Shady Lake, New Jersey
Current Conditions -  °F | °C
As of 7:53 PM on Monday 22 Dec 2014 (Local Time) from KFWN Reporting Station
Haze Haze  
Wind Chill:   Ceiling: 500
Heat Index:   Visibility: 5mi
Dew Point:   Wind: 6mph
Humidity: 93%   Direction: 50°NE
Pressure: 30.21"   Gusts: NA
Location:  41.0879°N, 74.3771°W
Report Text: KFWN 230053Z AUTO 05005KT 5SM BR OVC005 02/01 A3021 RMK AO2 SLP235 T00220011
Loading
Personal Weather Stations






























Interactive Weather Map New forecast layout! Learn more

10-Day Weather Forecast

Advertisements
Track Severe Weather on mobile